sensor_id;sensor_type;location;lat;lon;timestamp;P1;durP1;ratioP1;P2;durP2;ratioP2
15230;SDS011;32569;51.762;8.564;2022-11-25T00:00:32;10.77;;;7.63;;
15230;SDS011;32569;51.762;8.564;2022-11-25T00:02:58;11.17;;;7.53;;
15230;SDS011;32569;51.762;8.564;2022-11-25T00:05:25;11.37;;;7.53;;
15230;SDS011;32569;51.762;8.564;2022-11-25T00:07:52;10.23;;;7.67;;
15230;SDS011;32569;51.762;8.564;2022-11-25T00:10:19;11.60;;;7.57;;
15230;SDS011;32569;51.762;8.564;2022-11-25T00:12:46;13.40;;;8.10;;
15230;SDS011;32569;51.762;8.564;2022-11-25T00:15:14;11.67;;;6.93;;
15230;SDS011;32569;51.762;8.564;2022-11-25T00:17:41;8.97;;;7.10;;
15230;SDS011;32569;51.762;8.564;2022-11-25T00:20:08;12.50;;;7.17;;
15230;SDS011;32569;51.762;8.564;2022-11-25T00:22:35;9.67;;;6.60;;
15230;SDS011;32569;51.762;8.564;2022-11-25T00:25:02;12.00;;;6.67;;
15230;SDS011;32569;51.762;8.564;2022-11-25T00:27:29;9.83;;;6.50;;
15230;SDS011;32569;51.762;8.564;2022-11-25T00:29:55;10.70;;;6.50;;
15230;SDS011;32569;51.762;8.564;2022-11-25T00:32:24;7.77;;;6.30;;
15230;SDS011;32569;51.762;8.564;2022-11-25T00:34:50;10.40;;;6.23;;
15230;SDS011;32569;51.762;8.564;2022-11-25T00:37:17;11.63;;;6.63;;
15230;SDS011;32569;51.762;8.564;2022-11-25T00:39:44;12.27;;;6.10;;
15230;SDS011;32569;51.762;8.564;2022-11-25T00:42:10;13.77;;;6.57;;
15230;SDS011;32569;51.762;8.564;2022-11-25T00:44:55;8.47;;;6.10;;
15230;SDS011;32569;51.762;8.564;2022-11-25T00:47:21;10.37;;;5.80;;
15230;SDS011;32569;51.762;8.564;2022-11-25T00:49:50;7.57;;;5.53;;
15230;SDS011;32569;51.762;8.564;2022-11-25T00:52:19;10.30;;;5.90;;
15230;SDS011;32569;51.762;8.564;2022-11-25T00:54:48;11.03;;;6.10;;
15230;SDS011;32569;51.762;8.564;2022-11-25T00:57:15;9.97;;;6.27;;
15230;SDS011;32569;51.762;8.564;2022-11-25T00:59:43;11.20;;;5.17;;
15230;SDS011;32569;51.762;8.564;2022-11-25T01:02:10;8.57;;;4.90;;
15230;SDS011;32569;51.762;8.564;2022-11-25T01:04:39;9.57;;;4.87;;
15230;SDS011;32569;51.762;8.564;2022-11-25T01:07:06;9.23;;;5.70;;
15230;SDS011;32569;51.762;8.564;2022-11-25T01:09:33;11.57;;;5.40;;
15230;SDS011;32569;51.762;8.564;2022-11-25T01:12:01;13.53;;;4.87;;
15230;SDS011;32569;51.762;8.564;2022-11-25T01:14:28;8.50;;;4.53;;
15230;SDS011;32569;51.762;8.564;2022-11-25T01:16:55;9.23;;;5.20;;
15230;SDS011;32569;51.762;8.564;2022-11-25T01:19:22;9.03;;;5.07;;
15230;SDS011;32569;51.762;8.564;2022-11-25T01:21:51;6.60;;;4.67;;
15230;SDS011;32569;51.762;8.564;2022-11-25T01:24:17;7.90;;;4.97;;
15230;SDS011;32569;51.762;8.564;2022-11-25T01:26:45;9.57;;;4.63;;
15230;SDS011;32569;51.762;8.564;2022-11-25T01:29:13;10.60;;;4.50;;
15230;SDS011;32569;51.762;8.564;2022-11-25T01:31:40;5.33;;;4.13;;
15230;SDS011;32569;51.762;8.564;2022-11-25T01:34:10;7.23;;;4.10;;
15230;SDS011;32569;51.762;8.564;2022-11-25T01:36:39;9.13;;;5.23;;
15230;SDS011;32569;51.762;8.564;2022-11-25T01:39:10;7.60;;;4.60;;
15230;SDS011;32569;51.762;8.564;2022-11-25T01:41:40;5.97;;;3.87;;
15230;SDS011;32569;51.762;8.564;2022-11-25T01:44:09;10.90;;;3.80;;
15230;SDS011;32569;51.762;8.564;2022-11-25T01:46:42;11.60;;;4.67;;
15230;SDS011;32569;51.762;8.564;2022-11-25T01:49:16;8.10;;;4.40;;
15230;SDS011;32569;51.762;8.564;2022-11-25T01:51:46;9.07;;;4.20;;
15230;SDS011;32569;51.762;8.564;2022-11-25T01:54:18;6.60;;;3.83;;
15230;SDS011;32569;51.762;8.564;2022-11-25T01:56:49;8.40;;;3.90;;
15230;SDS011;32569;51.762;8.564;2022-11-25T01:59:19;7.43;;;4.60;;
15230;SDS011;32569;51.762;8.564;2022-11-25T02:01:46;10.13;;;3.97;;
15230;SDS011;32569;51.762;8.564;2022-11-25T02:04:13;8.10;;;3.80;;
15230;SDS011;32569;51.762;8.564;2022-11-25T02:06:44;9.30;;;4.17;;
15230;SDS011;32569;51.762;8.564;2022-11-25T02:09:16;9.53;;;3.87;;
15230;SDS011;32569;51.762;8.564;2022-11-25T02:11:46;10.03;;;4.43;;
15230;SDS011;32569;51.762;8.564;2022-11-25T02:14:14;10.47;;;4.17;;
15230;SDS011;32569;51.762;8.564;2022-11-25T02:16:43;9.00;;;3.97;;
15230;SDS011;32569;51.762;8.564;2022-11-25T02:19:12;8.53;;;3.90;;
15230;SDS011;32569;51.762;8.564;2022-11-25T02:21:46;6.17;;;3.73;;
15230;SDS011;32569;51.762;8.564;2022-11-25T02:24:25;6.03;;;3.93;;
15230;SDS011;32569;51.762;8.564;2022-11-25T02:26:58;4.77;;;3.70;;
15230;SDS011;32569;51.762;8.564;2022-11-25T02:29:25;8.90;;;5.17;;
15230;SDS011;32569;51.762;8.564;2022-11-25T02:31:53;9.27;;;4.23;;
15230;SDS011;32569;51.762;8.564;2022-11-25T02:34:20;9.53;;;4.17;;
15230;SDS011;32569;51.762;8.564;2022-11-25T02:36:47;7.10;;;3.40;;
15230;SDS011;32569;51.762;8.564;2022-11-25T02:39:15;8.53;;;3.60;;
15230;SDS011;32569;51.762;8.564;2022-11-25T02:41:44;9.63;;;3.40;;
15230;SDS011;32569;51.762;8.564;2022-11-25T02:44:16;7.00;;;3.43;;
15230;SDS011;32569;51.762;8.564;2022-11-25T02:46:43;9.70;;;5.50;;
15230;SDS011;32569;51.762;8.564;2022-11-25T02:49:10;7.63;;;3.50;;
15230;SDS011;32569;51.762;8.564;2022-11-25T02:51:37;6.90;;;3.50;;
15230;SDS011;32569;51.762;8.564;2022-11-25T02:54:04;8.10;;;3.43;;
15230;SDS011;32569;51.762;8.564;2022-11-25T02:56:33;6.13;;;3.60;;
15230;SDS011;32569;51.762;8.564;2022-11-25T02:59:00;8.43;;;3.63;;
15230;SDS011;32569;51.762;8.564;2022-11-25T03:01:30;9.07;;;3.77;;
15230;SDS011;32569;51.762;8.564;2022-11-25T03:03:57;6.57;;;3.93;;
15230;SDS011;32569;51.762;8.564;2022-11-25T03:06:24;8.50;;;4.80;;
15230;SDS011;32569;51.762;8.564;2022-11-25T03:08:51;12.50;;;3.77;;
15230;SDS011;32569;51.762;8.564;2022-11-25T03:11:18;7.70;;;3.30;;
15230;SDS011;32569;51.762;8.564;2022-11-25T03:13:45;6.03;;;3.60;;
15230;SDS011;32569;51.762;8.564;2022-11-25T03:16:12;5.63;;;2.93;;
15230;SDS011;32569;51.762;8.564;2022-11-25T03:18:40;7.40;;;3.10;;
15230;SDS011;32569;51.762;8.564;2022-11-25T03:21:06;8.40;;;3.47;;
15230;SDS011;32569;51.762;8.564;2022-11-25T03:23:36;11.17;;;3.93;;
15230;SDS011;32569;51.762;8.564;2022-11-25T03:26:04;5.07;;;3.23;;
15230;SDS011;32569;51.762;8.564;2022-11-25T03:28:32;6.53;;;3.30;;
15230;SDS011;32569;51.762;8.564;2022-11-25T03:30:59;9.63;;;3.87;;
15230;SDS011;32569;51.762;8.564;2022-11-25T03:33:26;7.87;;;3.97;;
15230;SDS011;32569;51.762;8.564;2022-11-25T03:35:54;4.67;;;3.40;;
15230;SDS011;32569;51.762;8.564;2022-11-25T03:38:20;8.33;;;4.00;;
15230;SDS011;32569;51.762;8.564;2022-11-25T03:40:47;7.07;;;3.50;;
15230;SDS011;32569;51.762;8.564;2022-11-25T03:43:14;7.53;;;3.73;;
15230;SDS011;32569;51.762;8.564;2022-11-25T03:45:41;6.13;;;3.53;;
15230;SDS011;32569;51.762;8.564;2022-11-25T03:48:07;7.40;;;4.20;;
15230;SDS011;32569;51.762;8.564;2022-11-25T03:50:34;8.57;;;3.60;;
15230;SDS011;32569;51.762;8.564;2022-11-25T03:53:02;12.80;;;4.23;;
15230;SDS011;32569;51.762;8.564;2022-11-25T03:55:29;8.93;;;4.13;;
15230;SDS011;32569;51.762;8.564;2022-11-25T03:57:56;10.20;;;4.73;;
15230;SDS011;32569;51.762;8.564;2022-11-25T04:00:23;10.07;;;4.13;;
15230;SDS011;32569;51.762;8.564;2022-11-25T04:02:50;10.00;;;4.17;;
15230;SDS011;32569;51.762;8.564;2022-11-25T04:05:16;9.83;;;4.23;;
15230;SDS011;32569;51.762;8.564;2022-11-25T04:07:43;7.33;;;4.20;;
15230;SDS011;32569;51.762;8.564;2022-11-25T04:10:11;8.03;;;3.77;;
15230;SDS011;32569;51.762;8.564;2022-11-25T04:12:38;7.27;;;5.00;;
15230;SDS011;32569;51.762;8.564;2022-11-25T04:15:13;10.47;;;5.13;;
15230;SDS011;32569;51.762;8.564;2022-11-25T04:17:41;7.67;;;4.57;;
15230;SDS011;32569;51.762;8.564;2022-11-25T04:20:08;5.03;;;3.70;;
15230;SDS011;32569;51.762;8.564;2022-11-25T04:22:36;8.90;;;4.50;;
15230;SDS011;32569;51.762;8.564;2022-11-25T04:25:03;8.67;;;4.27;;
15230;SDS011;32569;51.762;8.564;2022-11-25T04:27:32;7.70;;;3.70;;
15230;SDS011;32569;51.762;8.564;2022-11-25T04:29:59;9.97;;;3.93;;
15230;SDS011;32569;51.762;8.564;2022-11-25T04:32:25;8.93;;;4.13;;
15230;SDS011;32569;51.762;8.564;2022-11-25T04:34:52;11.50;;;4.20;;
15230;SDS011;32569;51.762;8.564;2022-11-25T04:37:19;7.30;;;4.00;;
15230;SDS011;32569;51.762;8.564;2022-11-25T04:39:46;9.03;;;4.87;;
15230;SDS011;32569;51.762;8.564;2022-11-25T04:42:12;6.70;;;3.50;;
15230;SDS011;32569;51.762;8.564;2022-11-25T04:44:59;5.97;;;3.73;;
15230;SDS011;32569;51.762;8.564;2022-11-25T04:47:28;7.63;;;4.37;;
15230;SDS011;32569;51.762;8.564;2022-11-25T04:49:56;6.53;;;4.10;;
15230;SDS011;32569;51.762;8.564;2022-11-25T04:52:22;6.23;;;4.33;;
15230;SDS011;32569;51.762;8.564;2022-11-25T04:54:49;6.53;;;4.40;;
15230;SDS011;32569;51.762;8.564;2022-11-25T04:57:16;9.70;;;4.20;;
15230;SDS011;32569;51.762;8.564;2022-11-25T04:59:43;6.03;;;4.27;;
15230;SDS011;32569;51.762;8.564;2022-11-25T05:02:16;9.67;;;4.20;;
15230;SDS011;32569;51.762;8.564;2022-11-25T05:04:44;6.20;;;3.67;;
15230;SDS011;32569;51.762;8.564;2022-11-25T05:07:12;7.33;;;3.90;;
15230;SDS011;32569;51.762;8.564;2022-11-25T05:09:40;5.87;;;3.90;;
15230;SDS011;32569;51.762;8.564;2022-11-25T05:12:07;9.40;;;3.97;;
15230;SDS011;32569;51.762;8.564;2022-11-25T05:14:37;5.57;;;4.40;;
15230;SDS011;32569;51.762;8.564;2022-11-25T05:17:04;7.13;;;4.57;;
15230;SDS011;32569;51.762;8.564;2022-11-25T05:19:33;9.50;;;3.93;;
15230;SDS011;32569;51.762;8.564;2022-11-25T05:22:00;9.30;;;3.93;;
15230;SDS011;32569;51.762;8.564;2022-11-25T05:24:27;7.37;;;3.80;;
15230;SDS011;32569;51.762;8.564;2022-11-25T05:26:54;6.63;;;3.53;;
15230;SDS011;32569;51.762;8.564;2022-11-25T05:29:21;7.03;;;4.00;;
15230;SDS011;32569;51.762;8.564;2022-11-25T05:31:48;6.90;;;4.00;;
15230;SDS011;32569;51.762;8.564;2022-11-25T05:34:14;7.00;;;3.60;;
15230;SDS011;32569;51.762;8.564;2022-11-25T05:36:42;5.97;;;4.13;;
15230;SDS011;32569;51.762;8.564;2022-11-25T05:39:09;7.27;;;4.07;;
15230;SDS011;32569;51.762;8.564;2022-11-25T05:41:36;10.80;;;3.90;;
15230;SDS011;32569;51.762;8.564;2022-11-25T05:44:03;5.43;;;3.50;;
15230;SDS011;32569;51.762;8.564;2022-11-25T05:46:30;5.53;;;3.70;;
15230;SDS011;32569;51.762;8.564;2022-11-25T05:48:57;7.13;;;4.23;;
15230;SDS011;32569;51.762;8.564;2022-11-25T05:51:24;8.37;;;3.83;;
15230;SDS011;32569;51.762;8.564;2022-11-25T05:53:53;9.97;;;3.57;;
15230;SDS011;32569;51.762;8.564;2022-11-25T05:56:20;9.03;;;4.23;;
15230;SDS011;32569;51.762;8.564;2022-11-25T05:58:47;7.60;;;3.80;;
15230;SDS011;32569;51.762;8.564;2022-11-25T06:01:14;9.77;;;4.40;;
15230;SDS011;32569;51.762;8.564;2022-11-25T06:03:42;6.33;;;4.07;;
15230;SDS011;32569;51.762;8.564;2022-11-25T06:06:09;6.80;;;4.03;;
15230;SDS011;32569;51.762;8.564;2022-11-25T06:08:36;8.37;;;4.23;;
15230;SDS011;32569;51.762;8.564;2022-11-25T06:11:05;7.73;;;3.67;;
15230;SDS011;32569;51.762;8.564;2022-11-25T06:13:33;7.20;;;3.80;;
15230;SDS011;32569;51.762;8.564;2022-11-25T06:16:05;7.33;;;3.83;;
15230;SDS011;32569;51.762;8.564;2022-11-25T06:18:33;6.80;;;3.90;;
15230;SDS011;32569;51.762;8.564;2022-11-25T06:21:01;7.60;;;4.13;;
15230;SDS011;32569;51.762;8.564;2022-11-25T06:23:28;8.80;;;4.33;;
15230;SDS011;32569;51.762;8.564;2022-11-25T06:26:01;8.37;;;4.80;;
15230;SDS011;32569;51.762;8.564;2022-11-25T06:28:30;8.17;;;4.13;;
15230;SDS011;32569;51.762;8.564;2022-11-25T06:30:56;7.43;;;4.60;;
15230;SDS011;32569;51.762;8.564;2022-11-25T06:33:30;7.70;;;4.30;;
15230;SDS011;32569;51.762;8.564;2022-11-25T06:35:56;9.60;;;4.47;;
15230;SDS011;32569;51.762;8.564;2022-11-25T06:38:23;8.30;;;4.57;;
15230;SDS011;32569;51.762;8.564;2022-11-25T06:40:50;7.47;;;4.07;;
15230;SDS011;32569;51.762;8.564;2022-11-25T06:43:17;11.57;;;5.00;;
15230;SDS011;32569;51.762;8.564;2022-11-25T06:45:45;6.83;;;3.83;;
15230;SDS011;32569;51.762;8.564;2022-11-25T06:48:11;7.17;;;4.37;;
15230;SDS011;32569;51.762;8.564;2022-11-25T06:50:38;8.50;;;4.63;;
15230;SDS011;32569;51.762;8.564;2022-11-25T06:53:05;8.00;;;4.87;;
15230;SDS011;32569;51.762;8.564;2022-11-25T06:55:32;6.00;;;5.40;;
15230;SDS011;32569;51.762;8.564;2022-11-25T06:57:58;7.27;;;4.60;;
15230;SDS011;32569;51.762;8.564;2022-11-25T07:00:25;7.13;;;4.73;;
15230;SDS011;32569;51.762;8.564;2022-11-25T07:02:53;12.03;;;5.63;;
15230;SDS011;32569;51.762;8.564;2022-11-25T07:05:20;8.60;;;4.77;;
15230;SDS011;32569;51.762;8.564;2022-11-25T07:07:47;11.47;;;5.43;;
15230;SDS011;32569;51.762;8.564;2022-11-25T07:10:14;9.30;;;5.47;;
15230;SDS011;32569;51.762;8.564;2022-11-25T07:12:40;13.33;;;6.03;;
15230;SDS011;32569;51.762;8.564;2022-11-25T07:15:08;11.00;;;6.17;;
15230;SDS011;32569;51.762;8.564;2022-11-25T07:17:36;9.57;;;5.40;;
15230;SDS011;32569;51.762;8.564;2022-11-25T07:20:05;11.93;;;5.67;;
15230;SDS011;32569;51.762;8.564;2022-11-25T07:22:32;9.00;;;6.50;;
15230;SDS011;32569;51.762;8.564;2022-11-25T07:24:59;7.90;;;5.80;;
15230;SDS011;32569;51.762;8.564;2022-11-25T07:27:26;11.53;;;6.63;;
15230;SDS011;32569;51.762;8.564;2022-11-25T07:29:53;11.93;;;5.40;;
15230;SDS011;32569;51.762;8.564;2022-11-25T07:32:19;14.00;;;6.27;;
15230;SDS011;32569;51.762;8.564;2022-11-25T07:34:48;11.37;;;6.00;;
15230;SDS011;32569;51.762;8.564;2022-11-25T07:37:16;10.00;;;6.17;;
15230;SDS011;32569;51.762;8.564;2022-11-25T07:39:44;11.00;;;6.20;;
15230;SDS011;32569;51.762;8.564;2022-11-25T07:42:10;10.20;;;5.80;;
15230;SDS011;32569;51.762;8.564;2022-11-25T07:44:39;14.67;;;6.73;;
15230;SDS011;32569;51.762;8.564;2022-11-25T07:47:06;9.27;;;6.00;;
15230;SDS011;32569;51.762;8.564;2022-11-25T07:49:33;11.67;;;6.77;;
15230;SDS011;32569;51.762;8.564;2022-11-25T07:51:59;13.53;;;6.67;;
15230;SDS011;32569;51.762;8.564;2022-11-25T07:54:29;11.67;;;5.93;;
15230;SDS011;32569;51.762;8.564;2022-11-25T07:56:57;11.10;;;5.70;;
15230;SDS011;32569;51.762;8.564;2022-11-25T07:59:24;11.00;;;5.67;;
15230;SDS011;32569;51.762;8.564;2022-11-25T08:01:51;13.13;;;5.77;;
15230;SDS011;32569;51.762;8.564;2022-11-25T08:04:19;9.83;;;6.10;;
15230;SDS011;32569;51.762;8.564;2022-11-25T08:06:47;9.03;;;6.10;;
15230;SDS011;32569;51.762;8.564;2022-11-25T08:09:16;13.27;;;5.37;;
15230;SDS011;32569;51.762;8.564;2022-11-25T08:11:46;10.63;;;5.40;;
15230;SDS011;32569;51.762;8.564;2022-11-25T08:14:14;10.70;;;5.83;;
15230;SDS011;32569;51.762;8.564;2022-11-25T08:16:41;21.57;;;9.30;;
15230;SDS011;32569;51.762;8.564;2022-11-25T08:19:10;11.43;;;6.93;;
15230;SDS011;32569;51.762;8.564;2022-11-25T08:21:38;11.60;;;6.07;;
15230;SDS011;32569;51.762;8.564;2022-11-25T08:24:05;9.47;;;5.97;;
15230;SDS011;32569;51.762;8.564;2022-11-25T08:26:34;16.70;;;7.80;;
15230;SDS011;32569;51.762;8.564;2022-11-25T08:29:03;12.37;;;5.77;;
15230;SDS011;32569;51.762;8.564;2022-11-25T08:31:32;8.33;;;4.67;;
15230;SDS011;32569;51.762;8.564;2022-11-25T08:34:00;7.93;;;4.13;;
15230;SDS011;32569;51.762;8.564;2022-11-25T08:36:29;10.60;;;3.87;;
15230;SDS011;32569;51.762;8.564;2022-11-25T08:38:57;9.63;;;4.90;;
15230;SDS011;32569;51.762;8.564;2022-11-25T08:41:26;8.73;;;3.77;;
15230;SDS011;32569;51.762;8.564;2022-11-25T08:43:55;12.37;;;4.30;;
15230;SDS011;32569;51.762;8.564;2022-11-25T08:46:25;8.40;;;4.17;;
15230;SDS011;32569;51.762;8.564;2022-11-25T08:48:53;8.37;;;4.10;;
15230;SDS011;32569;51.762;8.564;2022-11-25T08:51:21;5.57;;;3.80;;
15230;SDS011;32569;51.762;8.564;2022-11-25T08:53:49;10.23;;;3.77;;
15230;SDS011;32569;51.762;8.564;2022-11-25T08:56:16;7.50;;;4.13;;
15230;SDS011;32569;51.762;8.564;2022-11-25T08:58:44;8.10;;;4.00;;
15230;SDS011;32569;51.762;8.564;2022-11-25T09:01:12;11.17;;;4.17;;
15230;SDS011;32569;51.762;8.564;2022-11-25T09:03:42;7.10;;;3.60;;
15230;SDS011;32569;51.762;8.564;2022-11-25T09:06:10;6.73;;;3.80;;
15230;SDS011;32569;51.762;8.564;2022-11-25T09:08:38;6.90;;;3.30;;
15230;SDS011;32569;51.762;8.564;2022-11-25T09:11:06;6.97;;;3.40;;
15230;SDS011;32569;51.762;8.564;2022-11-25T09:13:33;7.73;;;3.77;;
15230;SDS011;32569;51.762;8.564;2022-11-25T09:16:00;8.00;;;4.13;;
15230;SDS011;32569;51.762;8.564;2022-11-25T09:18:27;4.87;;;3.43;;
15230;SDS011;32569;51.762;8.564;2022-11-25T09:20:58;6.77;;;3.70;;
15230;SDS011;32569;51.762;8.564;2022-11-25T09:23:25;6.23;;;3.30;;
15230;SDS011;32569;51.762;8.564;2022-11-25T09:25:52;8.27;;;4.03;;
15230;SDS011;32569;51.762;8.564;2022-11-25T09:28:20;7.97;;;3.83;;
15230;SDS011;32569;51.762;8.564;2022-11-25T09:30:47;6.33;;;3.93;;
15230;SDS011;32569;51.762;8.564;2022-11-25T09:33:15;7.23;;;3.80;;
15230;SDS011;32569;51.762;8.564;2022-11-25T09:35:42;7.63;;;3.50;;
15230;SDS011;32569;51.762;8.564;2022-11-25T09:38:10;9.57;;;4.33;;
15230;SDS011;32569;51.762;8.564;2022-11-25T09:40:39;9.33;;;3.83;;
15230;SDS011;32569;51.762;8.564;2022-11-25T09:43:14;5.83;;;3.90;;
15230;SDS011;32569;51.762;8.564;2022-11-25T09:46:07;7.87;;;4.03;;
15230;SDS011;32569;51.762;8.564;2022-11-25T09:48:59;7.80;;;3.63;;
15230;SDS011;32569;51.762;8.564;2022-11-25T09:51:36;9.50;;;4.17;;
15230;SDS011;32569;51.762;8.564;2022-11-25T09:54:15;7.77;;;4.77;;
15230;SDS011;32569;51.762;8.564;2022-11-25T09:56:47;10.60;;;4.10;;
15230;SDS011;32569;51.762;8.564;2022-11-25T09:59:18;8.70;;;4.23;;
15230;SDS011;32569;51.762;8.564;2022-11-25T10:01:48;9.50;;;4.90;;
15230;SDS011;32569;51.762;8.564;2022-11-25T10:04:20;7.27;;;4.30;;
15230;SDS011;32569;51.762;8.564;2022-11-25T10:06:52;12.90;;;5.43;;
15230;SDS011;32569;51.762;8.564;2022-11-25T10:09:25;8.80;;;4.20;;
15230;SDS011;32569;51.762;8.564;2022-11-25T10:11:55;11.57;;;4.47;;
15230;SDS011;32569;51.762;8.564;2022-11-25T10:14:27;6.37;;;4.43;;
15230;SDS011;32569;51.762;8.564;2022-11-25T10:17:00;6.53;;;4.20;;
15230;SDS011;32569;51.762;8.564;2022-11-25T10:19:37;8.63;;;4.40;;
15230;SDS011;32569;51.762;8.564;2022-11-25T10:22:12;7.67;;;4.97;;
15230;SDS011;32569;51.762;8.564;2022-11-25T10:24:48;9.97;;;4.00;;
15230;SDS011;32569;51.762;8.564;2022-11-25T10:27:20;6.10;;;4.23;;
15230;SDS011;32569;51.762;8.564;2022-11-25T10:29:53;6.27;;;4.00;;
15230;SDS011;32569;51.762;8.564;2022-11-25T10:32:27;5.00;;;3.60;;
15230;SDS011;32569;51.762;8.564;2022-11-25T10:35:03;7.53;;;4.13;;
15230;SDS011;32569;51.762;8.564;2022-11-25T10:37:38;6.00;;;4.00;;
15230;SDS011;32569;51.762;8.564;2022-11-25T10:40:12;7.00;;;3.70;;
15230;SDS011;32569;51.762;8.564;2022-11-25T10:42:40;5.50;;;3.80;;
15230;SDS011;32569;51.762;8.564;2022-11-25T10:45:08;6.63;;;3.97;;
15230;SDS011;32569;51.762;8.564;2022-11-25T10:47:40;6.63;;;3.70;;
15230;SDS011;32569;51.762;8.564;2022-11-25T10:50:21;5.07;;;3.90;;
15230;SDS011;32569;51.762;8.564;2022-11-25T10:52:58;6.27;;;3.60;;
15230;SDS011;32569;51.762;8.564;2022-11-25T10:55:29;9.93;;;3.63;;
15230;SDS011;32569;51.762;8.564;2022-11-25T10:57:58;4.87;;;3.43;;
15230;SDS011;32569;51.762;8.564;2022-11-25T11:00:44;4.20;;;3.30;;
15230;SDS011;32569;51.762;8.564;2022-11-25T11:03:12;4.93;;;3.40;;
15230;SDS011;32569;51.762;8.564;2022-11-25T11:05:44;8.53;;;3.77;;
15230;SDS011;32569;51.762;8.564;2022-11-25T11:08:15;7.13;;;3.97;;
15230;SDS011;32569;51.762;8.564;2022-11-25T11:10:47;5.43;;;3.40;;
15230;SDS011;32569;51.762;8.564;2022-11-25T11:13:35;7.13;;;4.63;;
15230;SDS011;32569;51.762;8.564;2022-11-25T11:16:03;9.87;;;6.47;;
15230;SDS011;32569;51.762;8.564;2022-11-25T11:18:45;7.00;;;4.57;;
15230;SDS011;32569;51.762;8.564;2022-11-25T11:21:20;7.23;;;3.57;;
15230;SDS011;32569;51.762;8.564;2022-11-25T11:23:49;6.30;;;3.53;;
15230;SDS011;32569;51.762;8.564;2022-11-25T11:26:21;6.67;;;4.53;;
15230;SDS011;32569;51.762;8.564;2022-11-25T11:29:00;10.57;;;4.20;;
15230;SDS011;32569;51.762;8.564;2022-11-25T11:31:30;4.33;;;3.23;;
15230;SDS011;32569;51.762;8.564;2022-11-25T11:37:02;5.07;;;2.90;;
15230;SDS011;32569;51.762;8.564;2022-11-25T11:39:53;7.03;;;3.47;;
15230;SDS011;32569;51.762;8.564;2022-11-25T11:42:30;7.73;;;3.80;;
15230;SDS011;32569;51.762;8.564;2022-11-25T11:45:04;5.00;;;2.80;;
15230;SDS011;32569;51.762;8.564;2022-11-25T11:47:50;6.80;;;3.47;;
15230;SDS011;32569;51.762;8.564;2022-11-25T11:50:25;5.63;;;2.70;;
15230;SDS011;32569;51.762;8.564;2022-11-25T11:52:57;7.53;;;3.63;;
15230;SDS011;32569;51.762;8.564;2022-11-25T11:55:44;6.17;;;3.00;;
15230;SDS011;32569;51.762;8.564;2022-11-25T11:58:27;6.00;;;2.67;;
15230;SDS011;32569;51.762;8.564;2022-11-25T12:01:08;6.90;;;3.10;;
15230;SDS011;32569;51.762;8.564;2022-11-25T12:03:54;5.80;;;2.73;;
15230;SDS011;32569;51.762;8.564;2022-11-25T12:06:24;9.13;;;3.40;;
15230;SDS011;32569;51.762;8.564;2022-11-25T12:08:55;4.60;;;3.13;;
15230;SDS011;32569;51.762;8.564;2022-11-25T12:11:29;6.23;;;3.07;;
15230;SDS011;32569;51.762;8.564;2022-11-25T12:14:03;5.27;;;3.33;;
15230;SDS011;32569;51.762;8.564;2022-11-25T12:16:35;5.57;;;3.07;;
15230;SDS011;32569;51.762;8.564;2022-11-25T12:19:12;5.40;;;2.87;;
15230;SDS011;32569;51.762;8.564;2022-11-25T12:21:45;4.83;;;3.20;;
15230;SDS011;32569;51.762;8.564;2022-11-25T12:24:20;4.43;;;2.67;;
15230;SDS011;32569;51.762;8.564;2022-11-25T12:26:53;4.97;;;2.80;;
15230;SDS011;32569;51.762;8.564;2022-11-25T12:29:34;4.67;;;3.10;;
15230;SDS011;32569;51.762;8.564;2022-11-25T12:32:08;7.03;;;3.60;;
15230;SDS011;32569;51.762;8.564;2022-11-25T12:34:57;6.30;;;3.50;;
15230;SDS011;32569;51.762;8.564;2022-11-25T12:37:29;5.63;;;3.30;;
15230;SDS011;32569;51.762;8.564;2022-11-25T12:40:03;7.70;;;3.80;;
15230;SDS011;32569;51.762;8.564;2022-11-25T12:42:37;6.57;;;4.00;;
15230;SDS011;32569;51.762;8.564;2022-11-25T12:45:08;5.60;;;4.70;;
15230;SDS011;32569;51.762;8.564;2022-11-25T12:47:41;4.90;;;3.33;;
15230;SDS011;32569;51.762;8.564;2022-11-25T12:50:11;7.27;;;4.03;;
15230;SDS011;32569;51.762;8.564;2022-11-25T12:52:44;5.73;;;4.70;;
15230;SDS011;32569;51.762;8.564;2022-11-25T12:55:19;6.40;;;3.50;;
15230;SDS011;32569;51.762;8.564;2022-11-25T12:58:04;5.20;;;3.03;;
15230;SDS011;32569;51.762;8.564;2022-11-25T13:04:12;7.03;;;3.80;;
15230;SDS011;32569;51.762;8.564;2022-11-25T13:12:59;8.43;;;4.70;;
15230;SDS011;32569;51.762;8.564;2022-11-25T13:15:36;6.93;;;3.90;;
15230;SDS011;32569;51.762;8.564;2022-11-25T13:18:10;6.10;;;4.27;;
15230;SDS011;32569;51.762;8.564;2022-11-25T13:23:21;7.00;;;4.50;;
15230;SDS011;32569;51.762;8.564;2022-11-25T13:25:50;5.47;;;4.73;;
15230;SDS011;32569;51.762;8.564;2022-11-25T13:28:28;6.87;;;4.57;;
15230;SDS011;32569;51.762;8.564;2022-11-25T13:31:16;7.47;;;4.20;;
15230;SDS011;32569;51.762;8.564;2022-11-25T13:34:01;7.87;;;5.10;;
15230;SDS011;32569;51.762;8.564;2022-11-25T13:36:42;7.23;;;4.93;;
15230;SDS011;32569;51.762;8.564;2022-11-25T13:39:12;8.27;;;5.30;;
15230;SDS011;32569;51.762;8.564;2022-11-25T13:41:56;4.73;;;3.67;;
15230;SDS011;32569;51.762;8.564;2022-11-25T13:44:26;7.00;;;4.17;;
15230;SDS011;32569;51.762;8.564;2022-11-25T13:46:57;8.47;;;5.50;;
15230;SDS011;32569;51.762;8.564;2022-11-25T13:49:35;5.60;;;3.97;;
15230;SDS011;32569;51.762;8.564;2022-11-25T13:55:05;5.23;;;3.53;;
15230;SDS011;32569;51.762;8.564;2022-11-25T13:58:02;6.10;;;3.37;;
15230;SDS011;32569;51.762;8.564;2022-11-25T14:03:48;10.73;;;5.30;;
15230;SDS011;32569;51.762;8.564;2022-11-25T14:06:30;9.63;;;5.27;;
15230;SDS011;32569;51.762;8.564;2022-11-25T14:09:09;8.40;;;4.80;;
15230;SDS011;32569;51.762;8.564;2022-11-25T14:11:50;10.40;;;5.27;;
15230;SDS011;32569;51.762;8.564;2022-11-25T14:14:38;9.37;;;5.83;;
15230;SDS011;32569;51.762;8.564;2022-11-25T14:17:17;7.20;;;5.23;;
15230;SDS011;32569;51.762;8.564;2022-11-25T14:26:07;7.73;;;4.00;;
15230;SDS011;32569;51.762;8.564;2022-11-25T14:28:38;9.57;;;6.03;;
15230;SDS011;32569;51.762;8.564;2022-11-25T14:31:10;9.50;;;4.77;;
15230;SDS011;32569;51.762;8.564;2022-11-25T14:33:42;8.27;;;3.90;;
15230;SDS011;32569;51.762;8.564;2022-11-25T14:36:14;6.57;;;4.03;;
15230;SDS011;32569;51.762;8.564;2022-11-25T14:38:48;7.00;;;4.00;;
15230;SDS011;32569;51.762;8.564;2022-11-25T14:41:21;9.00;;;3.53;;
15230;SDS011;32569;51.762;8.564;2022-11-25T14:43:54;9.00;;;3.53;;
15230;SDS011;32569;51.762;8.564;2022-11-25T14:46:24;7.33;;;3.53;;
15230;SDS011;32569;51.762;8.564;2022-11-25T14:48:52;5.70;;;4.63;;
15230;SDS011;32569;51.762;8.564;2022-11-25T14:51:19;9.43;;;3.73;;
15230;SDS011;32569;51.762;8.564;2022-11-25T14:53:48;5.60;;;3.90;;
15230;SDS011;32569;51.762;8.564;2022-11-25T14:56:20;6.97;;;4.03;;
15230;SDS011;32569;51.762;8.564;2022-11-25T14:58:51;8.30;;;4.50;;
15230;SDS011;32569;51.762;8.564;2022-11-25T15:01:20;6.57;;;3.87;;
15230;SDS011;32569;51.762;8.564;2022-11-25T15:03:48;7.37;;;3.67;;
15230;SDS011;32569;51.762;8.564;2022-11-25T15:06:17;7.80;;;5.80;;
15230;SDS011;32569;51.762;8.564;2022-11-25T15:08:45;9.67;;;4.97;;
15230;SDS011;32569;51.762;8.564;2022-11-25T15:11:22;7.50;;;4.17;;
15230;SDS011;32569;51.762;8.564;2022-11-25T15:13:52;7.10;;;4.60;;
15230;SDS011;32569;51.762;8.564;2022-11-25T15:16:24;6.60;;;3.90;;
15230;SDS011;32569;51.762;8.564;2022-11-25T15:18:57;7.47;;;4.20;;
15230;SDS011;32569;51.762;8.564;2022-11-25T15:21:26;7.43;;;3.80;;
15230;SDS011;32569;51.762;8.564;2022-11-25T15:23:57;5.73;;;4.10;;
15230;SDS011;32569;51.762;8.564;2022-11-25T15:26:25;6.10;;;3.63;;
15230;SDS011;32569;51.762;8.564;2022-11-25T15:28:53;7.73;;;4.20;;
15230;SDS011;32569;51.762;8.564;2022-11-25T15:31:23;6.13;;;4.10;;